sensor_id;sensor_type;location;lat;lon;timestamp;pressure;altitude;pressure_sealevel;temperature;humidity
51807;BME280;37865;51.304;9.536;2023-05-23T00:00:56;99732.94;;;15.40;100.00
51807;BME280;37865;51.304;9.536;2023-05-23T00:03:22;99734.00;;;15.54;100.00
51807;BME280;37865;51.304;9.536;2023-05-23T00:05:48;99733.31;;;15.67;100.00
51807;BME280;37865;51.304;9.536;2023-05-23T00:08:15;99731.28;;;15.77;100.00
51807;BME280;37865;51.304;9.536;2023-05-23T00:10:40;99722.91;;;15.87;100.00
51807;BME280;37865;51.304;9.536;2023-05-23T00:13:06;99734.13;;;15.96;100.00
51807;BME280;37865;51.304;9.536;2023-05-23T00:15:34;99730.72;;;16.04;100.00
51807;BME280;37865;51.304;9.536;2023-05-23T00:18:01;99738.38;;;16.12;100.00
51807;BME280;37865;51.304;9.536;2023-05-23T00:20:26;99731.41;;;16.20;100.00
51807;BME280;37865;51.304;9.536;2023-05-23T00:22:53;99721.97;;;16.26;100.00
51807;BME280;37865;51.304;9.536;2023-05-23T00:25:18;99725.47;;;16.31;100.00
51807;BME280;37865;51.304;9.536;2023-05-23T00:27:46;99719.91;;;16.36;100.00
51807;BME280;37865;51.304;9.536;2023-05-23T00:30:11;99722.31;;;16.43;100.00
51807;BME280;37865;51.304;9.536;2023-05-23T00:32:36;99733.25;;;16.48;100.00
51807;BME280;37865;51.304;9.536;2023-05-23T00:35:02;99736.28;;;16.51;100.00
51807;BME280;37865;51.304;9.536;2023-05-23T00:37:28;99742.31;;;16.53;100.00
51807;BME280;37865;51.304;9.536;2023-05-23T00:39:53;99747.81;;;16.53;100.00
51807;BME280;37865;51.304;9.536;2023-05-23T00:42:18;99742.06;;;16.50;100.00
51807;BME280;37865;51.304;9.536;2023-05-23T00:44:44;99744.84;;;16.45;100.00
51807;BME280;37865;51.304;9.536;2023-05-23T00:47:09;99748.19;;;16.42;100.00
51807;BME280;37865;51.304;9.536;2023-05-23T00:49:37;99756.22;;;16.38;100.00
51807;BME280;37865;51.304;9.536;2023-05-23T00:52:03;99762.59;;;16.34;100.00
51807;BME280;37865;51.304;9.536;2023-05-23T00:54:29;99752.97;;;16.31;100.00
51807;BME280;37865;51.304;9.536;2023-05-23T00:56:57;99756.91;;;16.25;100.00
51807;BME280;37865;51.304;9.536;2023-05-23T00:59:23;99765.22;;;16.20;100.00
51807;BME280;37865;51.304;9.536;2023-05-23T01:01:50;99756.72;;;16.17;100.00
51807;BME280;37865;51.304;9.536;2023-05-23T01:04:17;99763.66;;;16.14;100.00
51807;BME280;37865;51.304;9.536;2023-05-23T01:06:44;99767.19;;;16.15;100.00
51807;BME280;37865;51.304;9.536;2023-05-23T01:09:17;99764.44;;;16.15;100.00
51807;BME280;37865;51.304;9.536;2023-05-23T01:14:50;99754.88;;;16.36;100.00
51807;BME280;37865;51.304;9.536;2023-05-23T01:17:26;99757.47;;;16.51;100.00
51807;BME280;37865;51.304;9.536;2023-05-23T01:20:06;99766.13;;;16.63;100.00
51807;BME280;37865;51.304;9.536;2023-05-23T01:22:53;99750.31;;;16.73;100.00
51807;BME280;37865;51.304;9.536;2023-05-23T01:25:59;99752.09;;;16.83;99.60
51807;BME280;37865;51.304;9.536;2023-05-23T01:28:31;99753.97;;;16.87;99.07
51807;BME280;37865;51.304;9.536;2023-05-23T01:30:59;99751.44;;;16.91;98.60
51807;BME280;37865;51.304;9.536;2023-05-23T01:33:27;99753.91;;;16.93;98.27
51807;BME280;37865;51.304;9.536;2023-05-23T01:35:54;99754.44;;;16.95;97.63
51807;BME280;37865;51.304;9.536;2023-05-23T01:38:22;99753.28;;;16.96;97.14
51807;BME280;37865;51.304;9.536;2023-05-23T01:40:47;99750.25;;;16.97;96.66
51807;BME280;37865;51.304;9.536;2023-05-23T01:43:12;99758.22;;;16.99;96.25
51807;BME280;37865;51.304;9.536;2023-05-23T01:45:38;99753.81;;;16.98;95.38
51807;BME280;37865;51.304;9.536;2023-05-23T01:48:03;99757.41;;;16.98;95.13
51807;BME280;37865;51.304;9.536;2023-05-23T01:50:31;99763.72;;;16.99;95.19
51807;BME280;37865;51.304;9.536;2023-05-23T01:52:56;99765.66;;;16.98;94.83
51807;BME280;37865;51.304;9.536;2023-05-23T01:55:24;99766.78;;;16.97;94.77
51807;BME280;37865;51.304;9.536;2023-05-23T01:57:51;99773.09;;;16.98;94.66
51807;BME280;37865;51.304;9.536;2023-05-23T02:00:17;99775.06;;;16.97;94.69
51807;BME280;37865;51.304;9.536;2023-05-23T02:02:43;99779.44;;;16.98;94.63
51807;BME280;37865;51.304;9.536;2023-05-23T02:05:09;99781.66;;;16.96;94.31
51807;BME280;37865;51.304;9.536;2023-05-23T02:07:35;99774.81;;;16.94;94.01
51807;BME280;37865;51.304;9.536;2023-05-23T02:10:00;99782.53;;;16.92;93.86
51807;BME280;37865;51.304;9.536;2023-05-23T02:12:25;99780.69;;;16.87;93.37
51807;BME280;37865;51.304;9.536;2023-05-23T02:14:53;99780.75;;;16.82;93.24
51807;BME280;37865;51.304;9.536;2023-05-23T02:17:19;99791.56;;;16.78;92.85
51807;BME280;37865;51.304;9.536;2023-05-23T02:19:46;99785.00;;;16.74;92.68
51807;BME280;37865;51.304;9.536;2023-05-23T02:22:11;99782.81;;;16.71;92.71
51807;BME280;37865;51.304;9.536;2023-05-23T02:24:37;99778.19;;;16.67;92.63
51807;BME280;37865;51.304;9.536;2023-05-23T02:27:02;99786.22;;;16.63;92.35
51807;BME280;37865;51.304;9.536;2023-05-23T02:29:27;99789.03;;;16.58;91.79
51807;BME280;37865;51.304;9.536;2023-05-23T02:31:53;99800.91;;;16.54;91.32
51807;BME280;37865;51.304;9.536;2023-05-23T02:34:18;99797.94;;;16.50;90.04
51807;BME280;37865;51.304;9.536;2023-05-23T02:36:43;99800.69;;;16.50;89.57
51807;BME280;37865;51.304;9.536;2023-05-23T02:39:08;99797.09;;;16.50;89.78
51807;BME280;37865;51.304;9.536;2023-05-23T02:41:34;99801.25;;;16.47;89.83
51807;BME280;37865;51.304;9.536;2023-05-23T02:44:01;99800.72;;;16.45;89.69
51807;BME280;37865;51.304;9.536;2023-05-23T02:46:26;99804.88;;;16.43;89.19
51807;BME280;37865;51.304;9.536;2023-05-23T02:48:51;99811.47;;;16.42;89.30
51807;BME280;37865;51.304;9.536;2023-05-23T02:51:17;99809.03;;;16.40;88.70
51807;BME280;37865;51.304;9.536;2023-05-23T02:53:43;99806.28;;;16.40;88.32
51807;BME280;37865;51.304;9.536;2023-05-23T02:56:08;99810.97;;;16.40;87.63
51807;BME280;37865;51.304;9.536;2023-05-23T02:58:34;99806.28;;;16.40;87.41
51807;BME280;37865;51.304;9.536;2023-05-23T03:01:03;99801.06;;;16.39;87.05
51807;BME280;37865;51.304;9.536;2023-05-23T03:03:28;99815.38;;;16.41;86.75
51807;BME280;37865;51.304;9.536;2023-05-23T03:05:58;99805.22;;;16.36;86.33
51807;BME280;37865;51.304;9.536;2023-05-23T03:08:23;99818.47;;;16.34;86.00
51807;BME280;37865;51.304;9.536;2023-05-23T03:10:49;99822.03;;;16.35;86.04
51807;BME280;37865;51.304;9.536;2023-05-23T03:13:15;99813.78;;;16.35;85.89
51807;BME280;37865;51.304;9.536;2023-05-23T03:15:41;99811.28;;;16.33;85.89
51807;BME280;37865;51.304;9.536;2023-05-23T03:18:06;99815.19;;;16.32;85.86
51807;BME280;37865;51.304;9.536;2023-05-23T03:20:32;99820.69;;;16.32;85.82
51807;BME280;37865;51.304;9.536;2023-05-23T03:22:57;99815.19;;;16.32;85.92
51807;BME280;37865;51.304;9.536;2023-05-23T03:25:23;99822.06;;;16.30;85.79
51807;BME280;37865;51.304;9.536;2023-05-23T03:27:48;99836.97;;;16.29;85.93
51807;BME280;37865;51.304;9.536;2023-05-23T03:30:13;99838.06;;;16.28;85.15
51807;BME280;37865;51.304;9.536;2023-05-23T03:32:39;99838.38;;;16.21;84.04
51807;BME280;37865;51.304;9.536;2023-05-23T03:35:05;99834.88;;;16.16;83.49
51807;BME280;37865;51.304;9.536;2023-05-23T03:37:30;99840.16;;;16.12;83.30
51807;BME280;37865;51.304;9.536;2023-05-23T03:39:56;99836.88;;;16.10;83.00
51807;BME280;37865;51.304;9.536;2023-05-23T03:42:21;99835.78;;;16.06;82.52
51807;BME280;37865;51.304;9.536;2023-05-23T03:44:46;99840.19;;;16.07;82.17
51807;BME280;37865;51.304;9.536;2023-05-23T03:47:11;99841.00;;;16.07;82.35
51807;BME280;37865;51.304;9.536;2023-05-23T03:49:37;99842.94;;;16.07;82.40
51807;BME280;37865;51.304;9.536;2023-05-23T03:52:02;99847.31;;;16.08;82.79
51807;BME280;37865;51.304;9.536;2023-05-23T03:54:28;99844.28;;;16.09;82.84
51807;BME280;37865;51.304;9.536;2023-05-23T03:56:53;99844.03;;;16.06;83.19
51807;BME280;37865;51.304;9.536;2023-05-23T03:59:18;99843.50;;;16.04;83.58
51807;BME280;37865;51.304;9.536;2023-05-23T04:01:44;99853.44;;;16.00;83.76
51807;BME280;37865;51.304;9.536;2023-05-23T04:04:09;99855.97;;;15.91;84.21
51807;BME280;37865;51.304;9.536;2023-05-23T04:06:34;99859.63;;;15.87;84.12
51807;BME280;37865;51.304;9.536;2023-05-23T04:09:00;99859.88;;;15.85;84.25
51807;BME280;37865;51.304;9.536;2023-05-23T04:11:26;99867.34;;;15.85;83.88
51807;BME280;37865;51.304;9.536;2023-05-23T04:13:51;99860.47;;;15.82;83.89
51807;BME280;37865;51.304;9.536;2023-05-23T04:16:17;99866.84;;;15.73;84.35
51807;BME280;37865;51.304;9.536;2023-05-23T04:18:43;99866.91;;;15.68;84.35
51807;BME280;37865;51.304;9.536;2023-05-23T04:21:11;99869.97;;;15.61;84.36
51807;BME280;37865;51.304;9.536;2023-05-23T04:23:36;99874.69;;;15.56;84.83
51807;BME280;37865;51.304;9.536;2023-05-23T04:26:02;99871.94;;;15.56;84.41
51807;BME280;37865;51.304;9.536;2023-05-23T04:28:30;99878.53;;;15.55;83.69
51807;BME280;37865;51.304;9.536;2023-05-23T04:30:56;99880.50;;;15.49;83.79
51807;BME280;37865;51.304;9.536;2023-05-23T04:33:22;99884.59;;;15.42;83.89
51807;BME280;37865;51.304;9.536;2023-05-23T04:35:48;99880.00;;;15.37;84.10
51807;BME280;37865;51.304;9.536;2023-05-23T04:38:13;99876.97;;;15.33;84.48
51807;BME280;37865;51.304;9.536;2023-05-23T04:40:38;99880.00;;;15.32;84.54
51807;BME280;37865;51.304;9.536;2023-05-23T04:43:04;99885.25;;;15.28;85.02
51807;BME280;37865;51.304;9.536;2023-05-23T04:45:29;99889.66;;;15.24;85.41
51807;BME280;37865;51.304;9.536;2023-05-23T04:47:54;99883.34;;;15.24;85.45
51807;BME280;37865;51.304;9.536;2023-05-23T04:50:20;99876.47;;;15.21;86.41
51807;BME280;37865;51.304;9.536;2023-05-23T04:52:48;99885.31;;;15.13;87.14
51807;BME280;37865;51.304;9.536;2023-05-23T04:55:14;99886.50;;;14.97;89.03
51807;BME280;37865;51.304;9.536;2023-05-23T04:57:40;99888.69;;;14.90;89.87
51807;BME280;37865;51.304;9.536;2023-05-23T05:00:05;99901.06;;;14.88;90.41
51807;BME280;37865;51.304;9.536;2023-05-23T05:02:34;99895.84;;;14.86;90.46
51807;BME280;37865;51.304;9.536;2023-05-23T05:05:00;99893.66;;;14.88;90.55
51807;BME280;37865;51.304;9.536;2023-05-23T05:07:26;99886.78;;;14.91;90.63
51807;BME280;37865;51.304;9.536;2023-05-23T05:09:53;99892.53;;;14.99;89.94
51807;BME280;37865;51.304;9.536;2023-05-23T05:12:18;99895.78;;;15.06;90.01
51807;BME280;37865;51.304;9.536;2023-05-23T05:14:43;99899.06;;;15.13;89.60
51807;BME280;37865;51.304;9.536;2023-05-23T05:17:09;99888.84;;;15.19;89.19
51807;BME280;37865;51.304;9.536;2023-05-23T05:19:34;99894.63;;;15.22;88.88
51807;BME280;37865;51.304;9.536;2023-05-23T05:21:59;99897.63;;;15.26;88.12
51807;BME280;37865;51.304;9.536;2023-05-23T05:24:25;99894.84;;;15.31;87.96
51807;BME280;37865;51.304;9.536;2023-05-23T05:26:52;99896.50;;;15.32;87.17
51807;BME280;37865;51.304;9.536;2023-05-23T05:29:18;99895.41;;;15.33;87.11
51807;BME280;37865;51.304;9.536;2023-05-23T05:31:43;99894.25;;;15.39;87.00
51807;BME280;37865;51.304;9.536;2023-05-23T05:34:09;99891.50;;;15.44;86.99
51807;BME280;37865;51.304;9.536;2023-05-23T05:36:35;99892.34;;;15.45;86.38
51807;BME280;37865;51.304;9.536;2023-05-23T05:39:00;99892.88;;;15.47;86.56
51807;BME280;37865;51.304;9.536;2023-05-23T05:41:26;99897.81;;;15.50;85.94
51807;BME280;37865;51.304;9.536;2023-05-23T05:43:51;99900.81;;;15.48;85.90
51807;BME280;37865;51.304;9.536;2023-05-23T05:46:16;99890.94;;;15.42;85.95
51807;BME280;37865;51.304;9.536;2023-05-23T05:48:42;99892.63;;;15.43;85.84
51807;BME280;37865;51.304;9.536;2023-05-23T05:51:07;99885.44;;;15.42;85.78
51807;BME280;37865;51.304;9.536;2023-05-23T05:53:32;99890.66;;;15.44;85.91
51807;BME280;37865;51.304;9.536;2023-05-23T05:55:59;99897.53;;;15.46;85.92
51807;BME280;37865;51.304;9.536;2023-05-23T05:58:24;99897.28;;;15.48;85.90
51807;BME280;37865;51.304;9.536;2023-05-23T06:00:49;99892.56;;;15.48;86.04
51807;BME280;37865;51.304;9.536;2023-05-23T06:03:15;99898.59;;;15.50;85.89
51807;BME280;37865;51.304;9.536;2023-05-23T06:05:40;99904.69;;;15.47;86.08
51807;BME280;37865;51.304;9.536;2023-05-23T06:08:06;99895.31;;;15.48;85.96
51807;BME280;37865;51.304;9.536;2023-05-23T06:10:32;99885.69;;;15.51;86.22
51807;BME280;37865;51.304;9.536;2023-05-23T06:12:57;99897.75;;;15.55;86.03
51807;BME280;37865;51.304;9.536;2023-05-23T06:18:45;99895.63;;;15.47;86.49
51807;BME280;37865;51.304;9.536;2023-05-23T06:21:10;99900.03;;;15.48;86.82
51807;BME280;37865;51.304;9.536;2023-05-23T06:23:36;99902.47;;;15.49;86.86
51807;BME280;37865;51.304;9.536;2023-05-23T06:26:01;99905.22;;;15.49;86.72
51807;BME280;37865;51.304;9.536;2023-05-23T06:28:26;99897.28;;;15.48;87.08
51807;BME280;37865;51.304;9.536;2023-05-23T06:30:52;99903.00;;;15.51;87.07
51807;BME280;37865;51.304;9.536;2023-05-23T06:33:17;99904.66;;;15.52;87.49
51807;BME280;37865;51.304;9.536;2023-05-23T06:35:42;99904.38;;;15.54;87.72
51807;BME280;37865;51.304;9.536;2023-05-23T06:38:07;99903.25;;;15.60;87.69
51807;BME280;37865;51.304;9.536;2023-05-23T06:40:33;99898.00;;;15.63;87.33
51807;BME280;37865;51.304;9.536;2023-05-23T06:42:58;99904.53;;;15.72;87.31
51807;BME280;37865;51.304;9.536;2023-05-23T06:45:23;99911.91;;;15.77;87.40
51807;BME280;37865;51.304;9.536;2023-05-23T06:47:49;99902.03;;;15.76;87.62
51807;BME280;37865;51.304;9.536;2023-05-23T06:50:14;99898.97;;;15.82;87.57
51807;BME280;37865;51.304;9.536;2023-05-23T06:52:39;99908.00;;;15.88;87.53
51807;BME280;37865;51.304;9.536;2023-05-23T06:55:07;99907.97;;;15.93;87.25
51807;BME280;37865;51.304;9.536;2023-05-23T06:57:32;99909.03;;;15.97;87.22
51807;BME280;37865;51.304;9.536;2023-05-23T06:59:57;99903.22;;;16.03;86.96
51807;BME280;37865;51.304;9.536;2023-05-23T07:02:23;99910.56;;;16.08;86.80
51807;BME280;37865;51.304;9.536;2023-05-23T07:04:48;99916.66;;;16.05;86.86
51807;BME280;37865;51.304;9.536;2023-05-23T07:07:13;99914.78;;;16.00;86.95
51807;BME280;37865;51.304;9.536;2023-05-23T07:09:39;99917.22;;;16.02;87.49
51807;BME280;37865;51.304;9.536;2023-05-23T07:12:05;99908.41;;;16.05;87.35
51807;BME280;37865;51.304;9.536;2023-05-23T07:14:30;99913.09;;;16.04;87.44
51807;BME280;37865;51.304;9.536;2023-05-23T07:16:56;99910.41;;;15.99;87.76
51807;BME280;37865;51.304;9.536;2023-05-23T07:19:21;99914.25;;;15.98;88.23
51807;BME280;37865;51.304;9.536;2023-05-23T07:21:47;99914.22;;;16.03;88.25
51807;BME280;37865;51.304;9.536;2023-05-23T07:24:12;99912.00;;;16.05;88.08
51807;BME280;37865;51.304;9.536;2023-05-23T07:26:37;99911.16;;;16.05;88.23
51807;BME280;37865;51.304;9.536;2023-05-23T07:29:03;99914.66;;;16.16;88.08
51807;BME280;37865;51.304;9.536;2023-05-23T07:31:28;99925.88;;;16.24;87.84
51807;BME280;37865;51.304;9.536;2023-05-23T07:33:53;99925.88;;;16.24;87.41
51807;BME280;37865;51.304;9.536;2023-05-23T07:36:19;99923.66;;;16.26;87.45
51807;BME280;37865;51.304;9.536;2023-05-23T07:38:44;99927.13;;;16.37;86.92
51807;BME280;37865;51.304;9.536;2023-05-23T07:41:10;99928.72;;;16.43;86.24
51807;BME280;37865;51.304;9.536;2023-05-23T07:43:35;99925.16;;;16.42;86.09
51807;BME280;37865;51.304;9.536;2023-05-23T07:46:00;99920.72;;;16.46;85.79
51807;BME280;37865;51.304;9.536;2023-05-23T07:48:25;99931.19;;;16.44;85.63
51807;BME280;37865;51.304;9.536;2023-05-23T07:50:51;99925.13;;;16.47;85.60
51807;BME280;37865;51.304;9.536;2023-05-23T07:53:19;99935.31;;;16.47;85.74
51807;BME280;37865;51.304;9.536;2023-05-23T07:55:45;99941.38;;;16.44;85.46
51807;BME280;37865;51.304;9.536;2023-05-23T07:58:10;99935.06;;;16.43;85.57
51807;BME280;37865;51.304;9.536;2023-05-23T08:00:36;99934.19;;;16.48;85.13
51807;BME280;37865;51.304;9.536;2023-05-23T08:03:01;99935.59;;;16.45;85.08
51807;BME280;37865;51.304;9.536;2023-05-23T08:05:27;99932.84;;;16.45;85.22
51807;BME280;37865;51.304;9.536;2023-05-23T08:07:52;99940.81;;;16.47;85.56
51807;BME280;37865;51.304;9.536;2023-05-23T08:10:19;99946.56;;;16.50;85.44
51807;BME280;37865;51.304;9.536;2023-05-23T08:12:44;99953.50;;;16.43;85.24
51807;BME280;37865;51.304;9.536;2023-05-23T08:15:10;99947.56;;;16.31;86.17
51807;BME280;37865;51.304;9.536;2023-05-23T08:17:35;99952.75;;;16.32;86.66
51807;BME280;37865;51.304;9.536;2023-05-23T08:20:01;99959.66;;;16.30;87.48
51807;BME280;37865;51.304;9.536;2023-05-23T08:22:27;99957.97;;;16.34;87.33
51807;BME280;37865;51.304;9.536;2023-05-23T08:24:52;99965.41;;;16.33;87.48
51807;BME280;37865;51.304;9.536;2023-05-23T08:27:18;99968.22;;;16.28;87.82
51807;BME280;37865;51.304;9.536;2023-05-23T08:29:43;99968.03;;;16.15;88.34
51807;BME280;37865;51.304;9.536;2023-05-23T08:32:08;99975.50;;;16.09;89.02
51807;BME280;37865;51.304;9.536;2023-05-23T08:34:34;99969.16;;;16.08;88.90
51807;BME280;37865;51.304;9.536;2023-05-23T08:36:59;99970.53;;;16.11;89.12
51807;BME280;37865;51.304;9.536;2023-05-23T08:39:25;99974.13;;;16.06;88.72
51807;BME280;37865;51.304;9.536;2023-05-23T08:41:51;99972.28;;;15.97;89.38
51807;BME280;37865;51.304;9.536;2023-05-23T08:44:16;99980.84;;;15.95;88.82
51807;BME280;37865;51.304;9.536;2023-05-23T08:46:45;99984.16;;;15.87;88.43
51807;BME280;37865;51.304;9.536;2023-05-23T08:49:12;99983.38;;;15.82;88.52
51807;BME280;37865;51.304;9.536;2023-05-23T08:51:41;99981.50;;;15.72;89.37
51807;BME280;37865;51.304;9.536;2023-05-23T08:54:07;99990.56;;;15.78;89.00
51807;BME280;37865;51.304;9.536;2023-05-23T08:56:34;99993.28;;;15.83;88.69
51807;BME280;37865;51.304;9.536;2023-05-23T08:59:00;100002.25;;;15.93;88.33
51807;BME280;37865;51.304;9.536;2023-05-23T09:01:26;100007.78;;;15.93;88.18
51807;BME280;37865;51.304;9.536;2023-05-23T09:03:52;100001.41;;;15.98;87.87
51807;BME280;37865;51.304;9.536;2023-05-23T09:06:19;99999.22;;;16.00;87.82
51807;BME280;37865;51.304;9.536;2023-05-23T09:08:45;100008.28;;;16.05;87.74
51807;BME280;37865;51.304;9.536;2023-05-23T09:11:10;100008.50;;;16.09;87.90
51807;BME280;37865;51.304;9.536;2023-05-23T09:13:38;100020.38;;;16.04;88.28
51807;BME280;37865;51.304;9.536;2023-05-23T09:16:05;100024.28;;;15.93;89.32
51807;BME280;37865;51.304;9.536;2023-05-23T09:18:37;100032.38;;;15.70;91.35
51807;BME280;37865;51.304;9.536;2023-05-23T09:21:03;100033.56;;;15.39;93.87
51807;BME280;37865;51.304;9.536;2023-05-23T09:23:32;100035.56;;;15.18;96.43
51807;BME280;37865;51.304;9.536;2023-05-23T09:26:03;100036.94;;;15.00;97.74
51807;BME280;37865;51.304;9.536;2023-05-23T09:28:29;100036.13;;;14.95;99.36
51807;BME280;37865;51.304;9.536;2023-05-23T09:31:05;100035.03;;;14.86;99.95
51807;BME280;37865;51.304;9.536;2023-05-23T09:33:35;100045.22;;;14.75;99.92
51807;BME280;37865;51.304;9.536;2023-05-23T09:36:03;100051.53;;;14.66;100.00
51807;BME280;37865;51.304;9.536;2023-05-23T09:38:28;100042.19;;;14.72;100.00
51807;BME280;37865;51.304;9.536;2023-05-23T09:40:54;100055.91;;;14.82;100.00
51807;BME280;37865;51.304;9.536;2023-05-23T09:43:22;100055.09;;;14.86;100.00
51807;BME280;37865;51.304;9.536;2023-05-23T09:45:47;100053.47;;;14.85;100.00
51807;BME280;37865;51.304;9.536;2023-05-23T09:48:13;100055.66;;;14.83;100.00
51807;BME280;37865;51.304;9.536;2023-05-23T09:50:38;100069.63;;;14.82;100.00
51807;BME280;37865;51.304;9.536;2023-05-23T09:53:04;100064.44;;;14.70;100.00
51807;BME280;37865;51.304;9.536;2023-05-23T09:55:29;100073.22;;;14.57;100.00
51807;BME280;37865;51.304;9.536;2023-05-23T09:57:58;100073.16;;;14.27;100.00
51807;BME280;37865;51.304;9.536;2023-05-23T10:00:24;100075.81;;;14.07;100.00
51807;BME280;37865;51.304;9.536;2023-05-23T10:03:11;100075.00;;;14.01;100.00
51807;BME280;37865;51.304;9.536;2023-05-23T10:05:43;100079.91;;;13.94;100.00
51807;BME280;37865;51.304;9.536;2023-05-23T10:08:13;100083.72;;;13.88;100.00
51807;BME280;37865;51.304;9.536;2023-05-23T10:13:34;100096.31;;;13.79;100.00
51807;BME280;37865;51.304;9.536;2023-05-23T10:18:44;100109.38;;;13.67;100.00
51807;BME280;37865;51.304;9.536;2023-05-23T10:21:18;100114.59;;;13.63;100.00
51807;BME280;37865;51.304;9.536;2023-05-23T10:23:45;100104.72;;;13.62;100.00
51807;BME280;37865;51.304;9.536;2023-05-23T10:26:12;100115.09;;;13.55;100.00
51807;BME280;37865;51.304;9.536;2023-05-23T10:28:41;100117.22;;;13.48;100.00
51807;BME280;37865;51.304;9.536;2023-05-23T10:31:07;100119.69;;;13.45;100.00
51807;BME280;37865;51.304;9.536;2023-05-23T10:33:35;100121.59;;;13.44;100.00
51807;BME280;37865;51.304;9.536;2023-05-23T10:36:07;100126.56;;;13.47;100.00
51807;BME280;37865;51.304;9.536;2023-05-23T10:38:45;100128.50;;;13.52;100.00
51807;BME280;37865;51.304;9.536;2023-05-23T10:44:11;100127.44;;;13.63;100.00
51807;BME280;37865;51.304;9.536;2023-05-23T10:46:55;100131.56;;;13.60;100.00
51807;BME280;37865;51.304;9.536;2023-05-23T10:49:42;100129.34;;;13.57;100.00
51807;BME280;37865;51.304;9.536;2023-05-23T10:52:12;100122.47;;;13.55;100.00
51807;BME280;37865;51.304;9.536;2023-05-23T10:54:48;100130.69;;;13.55;100.00
51807;BME280;37865;51.304;9.536;2023-05-23T10:57:16;100129.06;;;13.54;100.00
51807;BME280;37865;51.304;9.536;2023-05-23T10:59:44;100128.50;;;13.57;100.00
51807;BME280;37865;51.304;9.536;2023-05-23T11:02:14;100132.38;;;13.61;100.00
51807;BME280;37865;51.304;9.536;2023-05-23T11:04:40;100133.25;;;13.66;100.00
51807;BME280;37865;51.304;9.536;2023-05-23T11:07:29;100132.72;;;13.75;100.00
51807;BME280;37865;51.304;9.536;2023-05-23T11:10:11;100117.16;;;13.90;100.00
51807;BME280;37865;51.304;9.536;2023-05-23T11:12:42;100133.38;;;13.97;100.00
51807;BME280;37865;51.304;9.536;2023-05-23T11:17:53;100127.94;;;14.02;100.00
51807;BME280;37865;51.304;9.536;2023-05-23T11:20:20;100137.00;;;14.12;100.00
51807;BME280;37865;51.304;9.536;2023-05-23T11:23:00;100130.50;;;14.28;100.00
51807;BME280;37865;51.304;9.536;2023-05-23T11:25:43;100116.28;;;14.46;100.00
51807;BME280;37865;51.304;9.536;2023-05-23T11:28:12;100141.53;;;14.43;100.00
51807;BME280;37865;51.304;9.536;2023-05-23T11:30:38;100129.94;;;14.31;100.00
51807;BME280;37865;51.304;9.536;2023-05-23T11:33:12;100138.47;;;14.30;100.00
51807;BME280;37865;51.304;9.536;2023-05-23T11:35:48;100134.84;;;14.24;100.00
51807;BME280;37865;51.304;9.536;2023-05-23T11:38:16;100145.00;;;14.24;100.00
51807;BME280;37865;51.304;9.536;2023-05-23T11:40:45;100142.53;;;14.27;99.01
51807;BME280;37865;51.304;9.536;2023-05-23T11:43:15;100152.47;;;14.33;98.21
51807;BME280;37865;51.304;9.536;2023-05-23T11:45:42;100154.38;;;14.38;98.31
51807;BME280;37865;51.304;9.536;2023-05-23T11:48:12;100157.69;;;14.40;97.96
51807;BME280;37865;51.304;9.536;2023-05-23T11:50:50;100159.34;;;14.46;98.33
51807;BME280;37865;51.304;9.536;2023-05-23T11:53:17;100150.84;;;14.52;98.45
51807;BME280;37865;51.304;9.536;2023-05-23T11:55:53;100150.31;;;14.45;98.39
51807;BME280;37865;51.304;9.536;2023-05-23T11:58:26;100152.75;;;14.37;98.11
51807;BME280;37865;51.304;9.536;2023-05-23T12:01:00;100163.66;;;14.27;98.91
51807;BME280;37865;51.304;9.536;2023-05-23T12:03:27;100173.22;;;14.19;99.18
51807;BME280;37865;51.304;9.536;2023-05-23T12:05:56;100175.94;;;14.09;100.00
51807;BME280;37865;51.304;9.536;2023-05-23T12:08:21;100189.34;;;14.06;100.00
51807;BME280;37865;51.304;9.536;2023-05-23T12:10:51;100189.31;;;14.01;99.90
51807;BME280;37865;51.304;9.536;2023-05-23T12:13:16;100189.06;;;14.02;99.90
51807;BME280;37865;51.304;9.536;2023-05-23T12:15:42;100183.28;;;13.99;99.38
51807;BME280;37865;51.304;9.536;2023-05-23T12:18:07;100194.56;;;14.02;99.54
51807;BME280;37865;51.304;9.536;2023-05-23T12:20:32;100195.34;;;13.98;98.83
51807;BME280;37865;51.304;9.536;2023-05-23T12:23:03;100196.47;;;14.02;99.26
51807;BME280;37865;51.304;9.536;2023-05-23T12:25:37;100201.69;;;14.03;98.98
51807;BME280;37865;51.304;9.536;2023-05-23T12:28:04;100196.16;;;13.98;98.70
51807;BME280;37865;51.304;9.536;2023-05-23T12:30:40;100205.44;;;13.92;97.06
51807;BME280;37865;51.304;9.536;2023-05-23T12:33:07;100206.50;;;13.86;97.96
51807;BME280;37865;51.304;9.536;2023-05-23T12:35:32;100197.72;;;13.79;97.74
51807;BME280;37865;51.304;9.536;2023-05-23T12:37:58;100214.13;;;13.74;98.13
51807;BME280;37865;51.304;9.536;2023-05-23T12:40:23;100213.28;;;13.73;99.08
51807;BME280;37865;51.304;9.536;2023-05-23T12:42:55;100210.81;;;13.72;99.00
51807;BME280;37865;51.304;9.536;2023-05-23T12:45:33;100222.34;;;13.74;99.35
51807;BME280;37865;51.304;9.536;2023-05-23T12:47:59;100230.56;;;13.69;99.11
51807;BME280;37865;51.304;9.536;2023-05-23T12:50:24;100239.50;;;13.59;99.52
51807;BME280;37865;51.304;9.536;2023-05-23T12:52:50;100235.03;;;13.48;99.43
51807;BME280;37865;51.304;9.536;2023-05-23T12:55:16;100236.66;;;13.44;99.64
51807;BME280;37865;51.304;9.536;2023-05-23T12:57:41;100224.00;;;13.38;99.43
51807;BME280;37865;51.304;9.536;2023-05-23T13:00:07;100238.75;;;13.32;99.18
51807;BME280;37865;51.304;9.536;2023-05-23T13:02:33;100235.72;;;13.34;99.69
51807;BME280;37865;51.304;9.536;2023-05-23T13:04:58;100253.56;;;13.36;99.77
51807;BME280;37865;51.304;9.536;2023-05-23T13:07:23;100253.56;;;13.36;99.42
51807;BME280;37865;51.304;9.536;2023-05-23T13:09:49;100244.88;;;13.44;99.56
51807;BME280;37865;51.304;9.536;2023-05-23T13:12:14;100243.56;;;13.52;99.56